Time;durP1;ratioP1;P1;durP2;ratioP2;P2;SDS_P1;SDS_P2;PMS_P1;PMS_P2;Temp;Humidity;BMP_temperature;BMP_pressure;BME280_temperature;BME280_humidity;BME280_pressure;Samples;Min_cycle;Max_cycle;Signal;HPM_P1;HPM_P2
2022/06/25 00:01:35;;;;;;;2.60;2.27;;;;;;;12.92;71.99;95444.64;1799981;80;21112;-64
2022/06/25 00:04:01;;;;;;;4.72;3.15;;;;;;;12.78;72.74;95446.39;1800110;79;21004;-65
2022/06/25 00:06:28;;;;;;;5.95;2.40;;;;;;;12.74;72.48;95448.70;1800246;79;21019;-64
2022/06/25 00:08:55;;;;;;;2.60;2.17;;;;;;;12.75;73.02;95453.08;1800166;80;21508;-64
2022/06/25 00:14:11;;;;;;;3.37;2.62;;;;;;;12.75;73.17;95451.75;1800145;79;20940;-65
2022/06/25 00:16:38;;;;;;;3.35;2.90;;;;;;;12.71;73.26;95448.34;1800074;80;21023;-64
2022/06/25 00:19:05;;;;;;;2.90;2.58;;;;;;;12.75;72.91;95443.81;1800424;79;20972;-65
2022/06/25 00:21:31;;;;;;;2.15;2.00;;;;;;;12.80;72.39;95445.00;1800126;79;21016;-64
2022/06/25 00:23:58;;;;;;;3.02;2.35;;;;;;;12.77;72.40;95447.28;1800283;80;21438;-64
2022/06/25 00:26:25;;;;;;;3.75;2.30;;;;;;;12.70;72.92;95451.91;1800018;79;21000;-64
2022/06/25 00:28:51;;;;;;;2.63;1.93;;;;;;;12.69;72.74;95448.84;1800162;79;20992;-64
2022/06/25 00:31:18;;;;;;;3.15;2.45;;;;;;;12.66;73.12;95448.07;1780215;79;20980;-64
2022/06/25 00:33:44;;;;;;;3.52;2.67;;;;;;;12.64;73.79;95440.63;1800414;79;21000;-64
2022/06/25 00:36:11;;;;;;;2.15;1.95;;;;;;;12.68;73.51;95444.47;1800187;79;21544;-64
2022/06/25 00:38:38;;;;;;;4.00;2.33;;;;;;;12.72;73.25;95445.23;1800329;79;20964;-64
2022/06/25 00:41:04;;;;;;;2.72;2.20;;;;;;;12.66;73.32;95441.45;1780258;80;21000;-64
2022/06/25 00:43:31;;;;;;;2.90;2.67;;;;;;;12.65;73.54;95439.70;1800275;79;20936;-64
2022/06/25 00:45:58;;;;;;;3.40;2.40;;;;;;;12.69;73.18;95444.00;1780099;80;20980;-64
2022/06/25 00:48:24;;;;;;;3.33;2.35;;;;;;;12.78;72.90;95442.42;1800272;79;20995;-64
2022/06/25 00:50:55;;;;;;;2.25;2.05;;;;;;;12.73;72.53;95435.94;1800231;79;21040;-65
2022/06/25 00:53:22;;;;;;;2.80;2.60;;;;;;;12.54;73.32;95438.70;1800458;79;21000;-65
2022/06/25 00:55:51;;;;;;;3.83;2.30;;;;;;;12.46;72.67;95441.56;1800419;80;21003;-65
2022/06/25 00:58:21;;;;;;;2.62;2.42;;;;;;;12.50;73.67;95435.75;1800396;79;20984;-65
2022/06/25 01:00:48;;;;;;;3.40;2.83;;;;;;;12.58;73.65;95436.38;1800284;80;21044;-64
2022/06/25 01:03:15;;;;;;;2.40;2.17;;;;;;;12.64;73.05;95435.33;1800251;79;20979;-64
2022/06/25 01:05:42;;;;;;;2.42;2.22;;;;;;;12.58;73.24;95432.42;1800317;80;21497;-65
2022/06/25 01:08:09;;;;;;;3.05;2.50;;;;;;;12.50;72.62;95431.31;1800437;79;21059;-65
2022/06/25 01:10:35;;;;;;;2.95;2.30;;;;;;;12.41;72.41;95432.03;1800425;80;21015;-64
2022/06/25 01:13:02;;;;;;;2.37;2.17;;;;;;;12.34;72.58;95430.86;1799968;80;20996;-65
2022/06/25 01:15:28;;;;;;;2.25;2.05;;;;;;;12.28;73.42;95434.16;1800046;80;20956;-64
2022/06/25 01:17:55;;;;;;;2.43;2.23;;;;;;;12.18;73.08;95429.56;1779935;80;21035;-64
2022/06/25 01:20:23;;;;;;;2.90;2.70;;;;;;;12.15;73.22;95426.16;1800381;79;21462;-65
2022/06/25 01:22:51;;;;;;;4.13;2.60;;;;;;;12.13;74.46;95427.05;1800268;80;20964;-65
2022/06/25 01:25:18;;;;;;;2.90;2.70;;;;;;;12.07;74.49;95426.33;1800102;79;20988;-64
2022/06/25 01:27:46;;;;;;;3.50;2.50;;;;;;;12.03;74.98;95431.31;1800288;80;21035;-64
2022/06/25 01:30:14;;;;;;;3.70;2.40;;;;;;;12.01;74.45;95430.47;1800309;79;20999;-65
2022/06/25 01:32:41;;;;;;;2.97;2.60;;;;;;;11.96;74.53;95435.02;1800058;79;20980;-64
2022/06/25 01:35:09;;;;;;;3.90;2.67;;;;;;;11.95;75.05;95435.48;1800287;79;21000;-65
2022/06/25 01:37:36;;;;;;;2.87;2.30;;;;;;;11.91;74.83;95430.70;1780217;80;21051;-65
2022/06/25 01:40:04;;;;;;;2.67;2.47;;;;;;;11.85;75.26;95432.63;1799830;79;21564;-65
2022/06/25 01:45:16;;;;;;;3.03;2.70;;;;;;;11.90;75.06;95432.09;1800228;79;21541;-64
2022/06/25 01:47:42;;;;;;;5.60;2.57;;;;;;;11.98;74.69;95435.85;1800358;80;21011;-64
2022/06/25 01:50:11;;;;;;;4.13;2.50;;;;;;;11.99;75.05;95441.08;1803427;79;20987;-65
2022/06/25 01:52:38;;;;;;;2.40;2.20;;;;;;;11.94;74.85;95432.86;1808212;79;21006;-65
2022/06/25 01:55:07;;;;;;;3.23;2.30;;;;;;;11.97;74.79;95444.67;1808149;79;21046;-64
2022/06/25 01:57:37;;;;;;;3.87;2.43;;;;;;;11.94;74.63;95444.77;1808342;79;21521;-65
2022/06/25 02:00:13;;;;;;;2.50;2.30;;;;;;;11.81;74.90;95442.86;1776769;79;20983;-65
2022/06/25 02:02:45;;;;;;;2.50;2.30;;;;;;;11.76;75.28;95441.65;1778213;79;21078;-64
2022/06/25 02:05:15;;;;;;;5.10;2.53;;;;;;;11.73;75.75;95435.59;1808317;79;21027;-65
2022/06/25 02:07:43;;;;;;;2.57;2.37;;;;;;;11.78;75.75;95435.87;1807857;79;21015;-64
2022/06/25 02:10:10;;;;;;;4.60;2.57;;;;;;;11.77;75.34;95439.87;1808086;79;20999;-64
2022/06/25 02:12:37;;;;;;;2.97;2.60;;;;;;;11.72;75.41;95441.77;1808183;79;21008;-64
2022/06/25 02:15:06;;;;;;;3.73;2.67;;;;;;;11.75;75.75;95443.89;1808223;79;21039;-64
2022/06/25 02:17:33;;;;;;;5.90;3.50;;;;;;;11.76;75.39;95440.79;1807726;79;21038;-64
2022/06/25 02:19:59;;;;;;;8.30;3.33;;;;;;;11.78;75.29;95436.34;1808171;79;20986;-65
2022/06/25 02:22:26;;;;;;;3.20;2.40;;;;;;;11.82;75.52;95436.69;1808419;79;21023;-64
2022/06/25 02:24:54;;;;;;;3.90;2.70;;;;;;;11.80;75.25;95442.00;1808587;79;21446;-65
2022/06/25 02:27:21;;;;;;;2.80;2.60;;;;;;;11.79;75.16;95445.99;1807690;79;21110;-64
2022/06/25 02:29:47;;;;;;;2.75;2.55;;;;;;;11.79;74.99;95444.24;1808367;79;21000;-65
2022/06/25 02:32:14;;;;;;;3.83;2.47;;;;;;;11.82;75.05;95442.84;1808040;79;21445;-65
2022/06/25 02:34:40;;;;;;;2.90;2.70;;;;;;;11.84;74.88;95444.99;1808185;79;20988;-64
2022/06/25 02:37:07;;;;;;;4.43;2.80;;;;;;;11.80;75.18;95451.25;1776720;79;20975;-64
2022/06/25 02:39:34;;;;;;;2.80;2.40;;;;;;;11.77;75.28;95450.02;1808136;79;20944;-65
2022/06/25 02:42:01;;;;;;;2.83;2.60;;;;;;;11.66;74.95;95452.91;1808094;79;20984;-64
2022/06/25 02:44:27;;;;;;;2.80;2.50;;;;;;;11.60;75.19;95454.85;1808397;79;21075;-64
2022/06/25 02:46:56;;;;;;;3.20;2.90;;;;;;;11.51;76.00;95455.93;1807925;79;21007;-64
2022/06/25 02:49:24;;;;;;;3.03;2.73;;;;;;;11.48;76.38;95458.66;1808018;79;21490;-64
2022/06/25 02:51:51;;;;;;;3.63;2.87;;;;;;;11.48;76.77;95458.66;1808113;79;20999;-64
2022/06/25 02:54:17;;;;;;;4.53;2.33;;;;;;;11.49;76.33;95455.12;1808144;79;21035;-65
2022/06/25 02:59:29;;;;;;;3.23;2.93;;;;;;;11.47;75.54;95449.87;1808191;79;21442;-64
2022/06/25 03:01:57;;;;;;;5.37;3.10;;;;;;;11.43;76.17;95459.22;1807913;79;21532;-65
2022/06/25 03:04:25;;;;;;;2.77;2.47;;;;;;;11.36;77.35;95458.48;1807575;79;21089;-64
2022/06/25 03:06:54;;;;;;;4.67;2.70;;;;;;;11.35;77.09;95454.58;1808309;79;21030;-65
2022/06/25 03:09:20;;;;;;;3.17;2.87;;;;;;;11.37;77.03;95460.70;1807808;79;21003;-65
2022/06/25 03:11:47;;;;;;;3.60;2.87;;;;;;;11.37;76.75;95455.42;1808451;79;20964;-64
2022/06/25 03:14:14;;;;;;;3.23;2.73;;;;;;;11.42;76.79;95458.81;1808047;79;21454;-64
2022/06/25 03:16:42;;;;;;;3.10;2.80;;;;;;;11.44;76.65;95453.91;1807625;79;21019;-65
2022/06/25 03:19:10;;;;;;;3.10;2.43;;;;;;;11.49;76.27;95453.80;1808189;79;20976;-65
2022/06/25 03:21:38;;;;;;;3.93;2.77;;;;;;;11.60;77.25;95458.81;1803930;79;21457;-65
2022/06/25 03:24:06;;;;;;;3.40;2.50;;;;;;;11.64;76.29;95453.42;1777503;79;21038;-65
2022/06/25 03:26:34;;;;;;;3.00;2.70;;;;;;;11.77;76.31;95459.70;1808330;79;20986;-64
2022/06/25 03:29:02;;;;;;;3.07;2.60;;;;;;;11.77;76.66;95457.05;1808088;79;21457;-64
2022/06/25 03:31:30;;;;;;;3.67;3.27;;;;;;;11.80;76.47;95460.50;1807687;79;20988;-64
2022/06/25 03:33:59;;;;;;;3.30;2.83;;;;;;;11.88;76.29;95457.70;1808187;79;21457;-65
2022/06/25 03:36:30;;;;;;;3.90;3.50;;;;;;;12.00;76.31;95457.84;1807228;79;21047;-65
2022/06/25 03:38:56;;;;;;;3.53;2.70;;;;;;;12.10;76.18;95459.33;1777032;79;21007;-65
2022/06/25 03:41:32;;;;;;;5.40;2.55;;;;;;;12.19;75.97;95460.84;1808282;79;20971;-65
2022/06/25 03:44:17;;;;;;;3.63;2.80;;;;;;;12.28;75.97;95461.47;1808020;79;20999;-64
2022/06/25 03:46:44;;;;;;;3.00;2.80;;;;;;;12.44;76.24;95464.55;1807948;79;21453;-65
2022/06/25 03:49:11;;;;;;;3.00;2.75;;;;;;;12.53;75.79;95459.01;1808109;79;21075;-64
2022/06/25 03:51:58;;;;;;;3.50;3.20;;;;;;;12.68;75.48;95463.46;1800505;79;21055;-65
2022/06/25 03:54:24;;;;;;;5.03;3.37;;;;;;;12.84;74.98;95458.58;1800505;79;21003;-65
2022/06/25 03:56:53;;;;;;;3.33;3.02;;;;;;;12.99;74.70;95456.33;1800332;79;21035;-65
2022/06/25 03:59:21;;;;;;;3.77;3.37;;;;;;;13.17;74.29;95454.03;1800315;79;20995;-65
2022/06/25 04:01:50;;;;;;;3.87;3.20;;;;;;;13.33;73.78;95451.80;1800520;79;20940;-65
2022/06/25 04:04:17;;;;;;;6.37;3.52;;;;;;;13.45;73.31;95458.03;1800314;79;21011;-64
2022/06/25 04:06:45;;;;;;;3.77;3.45;;;;;;;13.56;73.25;95456.39;1800232;79;21038;-65
2022/06/25 04:09:12;;;;;;;4.10;3.50;;;;;;;13.65;73.02;95452.09;1800278;79;21054;-64
2022/06/25 04:11:39;;;;;;;4.67;3.60;;;;;;;13.76;72.64;95451.77;1800503;79;21035;-64
2022/06/25 04:14:07;;;;;;;5.85;3.80;;;;;;;13.80;71.98;95452.91;1800434;79;20952;-65
2022/06/25 04:16:34;;;;;;;4.75;3.60;;;;;;;13.81;72.14;95445.38;1800400;79;21478;-65
2022/06/25 04:19:02;;;;;;;3.70;3.35;;;;;;;13.91;72.14;95450.35;1799251;79;21004;-64
2022/06/25 04:21:32;;;;;;;4.00;3.60;;;;;;;13.98;72.44;95452.74;1800290;79;20988;-65
2022/06/25 04:23:58;;;;;;;3.95;3.50;;;;;;;14.11;72.16;95457.63;1800357;79;21000;-65
2022/06/25 04:26:27;;;;;;;4.35;3.67;;;;;;;14.22;72.13;95455.02;1800245;79;21000;-65
2022/06/25 04:29:03;;;;;;;3.77;3.47;;;;;;;14.35;71.97;95454.59;1800563;79;20999;-64
2022/06/25 04:31:37;;;;;;;4.67;3.37;;;;;;;14.46;71.90;95457.71;1800563;79;21000;-65
2022/06/25 04:34:06;;;;;;;4.12;3.62;;;;;;;14.59;71.86;95457.73;1800011;79;21039;-65
2022/06/25 04:36:33;;;;;;;5.47;3.80;;;;;;;14.70;71.90;95458.19;1800394;79;20995;-65
2022/06/25 04:39:19;;;;;;;3.90;3.50;;;;;;;14.82;71.53;95457.34;1800497;79;20996;-65
2022/06/25 04:41:46;;;;;;;4.67;3.90;;;;;;;14.95;70.96;95445.80;1800280;79;20988;-65
2022/06/25 04:44:15;;;;;;;5.45;3.92;;;;;;;15.02;70.60;95447.27;1799680;79;21018;-64
2022/06/25 04:46:43;;;;;;;4.83;3.40;;;;;;;15.10;70.19;95444.73;1800437;79;21474;-64
2022/06/25 04:49:10;;;;;;;3.67;3.37;;;;;;;15.22;70.16;95445.16;1800103;80;21016;-65
2022/06/25 04:51:38;;;;;;;4.33;3.80;;;;;;;15.31;69.87;95443.02;1805125;79;21026;-65
2022/06/25 04:54:05;;;;;;;4.45;3.10;;;;;;;15.42;69.78;95448.37;1808266;79;21482;-65
2022/06/25 04:56:36;;;;;;;4.22;3.47;;;;;;;15.53;69.44;95447.02;1801460;79;21493;-65
2022/06/25 04:59:02;;;;;;;3.85;3.47;;;;;;;15.68;69.15;95446.87;1808383;79;20932;-65
2022/06/25 05:01:30;;;;;;;5.08;3.37;;;;;;;15.80;69.25;95449.53;1803532;79;21011;-64
2022/06/25 05:03:57;;;;;;;8.63;3.85;;;;;;;15.90;68.93;95448.66;1808021;79;21003;-65
2022/06/25 05:06:24;;;;;;;2.90;2.70;;;;;;;16.04;68.22;95456.08;1808241;79;21445;-65
2022/06/25 05:08:50;;;;;;;5.85;3.60;;;;;;;16.12;67.40;95452.62;1776891;79;20999;-64
2022/06/25 05:11:17;;;;;;;5.67;3.55;;;;;;;16.27;67.93;95453.29;1808201;79;21031;-65
2022/06/25 05:13:44;;;;;;;3.40;3.10;;;;;;;16.45;67.85;95452.95;1808123;79;21061;-64
2022/06/25 05:16:11;;;;;;;3.62;3.10;;;;;;;16.61;67.68;95455.83;1807882;79;21000;-64
2022/06/25 05:18:38;;;;;;;7.65;3.15;;;;;;;16.74;66.78;95454.80;1777031;79;21489;-65
2022/06/25 05:21:04;;;;;;;3.95;3.25;;;;;;;16.86;66.61;95454.29;1808153;79;20964;-65
2022/06/25 05:23:31;;;;;;;6.42;3.47;;;;;;;17.00;66.07;95449.17;1808165;79;21043;-65
2022/06/25 05:25:58;;;;;;;4.28;3.02;;;;;;;17.19;66.07;95448.34;1808264;79;20987;-64
2022/06/25 05:28:24;;;;;;;4.42;4.03;;;;;;;17.32;64.82;95443.28;1807946;79;21011;-64
2022/06/25 05:30:51;;;;;;;4.08;3.62;;;;;;;17.57;63.78;95438.50;1808111;79;20943;-65
2022/06/25 05:33:18;;;;;;;4.80;4.05;;;;;;;17.57;63.78;95438.50;1808198;79;20960;-65
2022/06/25 05:35:45;;;;;;;4.35;3.40;;;;;;;17.74;62.48;95447.02;1808223;79;21481;-65
2022/06/25 05:38:13;;;;;;;4.08;3.50;;;;;;;18.09;63.29;95448.41;1808029;79;20986;-65
2022/06/25 05:40:39;;;;;;;4.10;3.40;;;;;;;18.09;63.29;95448.41;1808261;79;20987;-65
2022/06/25 05:43:07;;;;;;;3.62;2.90;;;;;;;18.27;63.40;95439.49;1808218;79;21026;-64
2022/06/25 05:45:34;;;;;;;3.20;2.90;;;;;;;18.70;62.35;95436.39;1808140;79;21086;-65
2022/06/25 05:48:01;;;;;;;6.97;2.98;;;;;;;18.70;62.35;95436.39;1807961;79;21015;-64
2022/06/25 05:50:28;;;;;;;4.67;3.02;;;;;;;18.90;62.13;95433.99;1807247;79;21473;-65
2022/06/25 05:52:55;;;;;;;3.62;3.25;;;;;;;19.07;61.65;95431.27;1799923;79;21015;-64
2022/06/25 05:55:23;;;;;;;3.52;2.98;;;;;;;19.24;61.35;95433.03;1800148;79;21003;-64
2022/06/25 05:57:51;;;;;;;3.40;3.10;;;;;;;19.37;59.00;95435.41;1800088;79;21003;-65
2022/06/25 06:00:18;;;;;;;4.95;3.30;;;;;;;19.50;58.01;95434.23;1800247;79;21023;-64
2022/06/25 06:02:45;;;;;;;5.95;2.90;;;;;;;19.62;58.34;95439.38;1799703;79;21087;-64
2022/06/25 06:05:11;;;;;;;9.58;5.65;;;;;;;19.76;57.47;95442.18;1800429;79;20979;-65
2022/06/25 06:07:38;;;;;;;4.40;3.30;;;;;;;19.89;58.26;95443.20;1799859;80;21142;-65
2022/06/25 06:10:07;;;;;;;3.80;3.10;;;;;;;20.07;58.49;95439.06;1800184;79;21098;-65
2022/06/25 06:12:34;;;;;;;3.50;3.20;;;;;;;20.27;57.32;95443.25;1800041;79;21478;-65
2022/06/25 06:15:00;;;;;;;4.15;3.30;;;;;;;20.40;55.79;95440.70;1800318;79;20976;-64
2022/06/25 06:17:27;;;;;;;3.85;3.00;;;;;;;20.57;56.71;95449.97;1800039;80;21051;-65
2022/06/25 06:19:54;;;;;;;4.25;2.65;;;;;;;20.70;54.18;95447.41;1799860;80;21458;-65
2022/06/25 06:22:21;;;;;;;3.25;2.70;;;;;;;20.87;55.50;95457.11;1799899;80;21079;-65
2022/06/25 06:24:47;;;;;;;3.47;2.67;;;;;;;21.04;53.72;95441.29;1800441;79;20984;-65
2022/06/25 06:27:14;;;;;;;5.60;2.85;;;;;;;21.13;50.83;95444.27;1799746;79;21114;-65
2022/06/25 06:29:41;;;;;;;2.72;2.52;;;;;;;21.28;52.10;95441.59;1800103;80;20965;-65
2022/06/25 06:32:08;;;;;;;3.87;2.98;;;;;;;21.44;51.18;95453.58;1800262;80;21004;-65
2022/06/25 06:34:35;;;;;;;2.80;2.55;;;;;;;21.59;51.83;95449.91;1800068;80;20992;-65
2022/06/25 06:37:01;;;;;;;2.92;2.62;;;;;;;21.76;50.90;95446.99;1800456;80;21035;-65
2022/06/25 06:39:28;;;;;;;3.47;2.70;;;;;;;21.88;50.23;95448.02;1800302;79;21453;-65
2022/06/25 06:41:54;;;;;;;5.15;2.80;;;;;;;21.97;48.06;95444.74;1799715;79;20976;-65
2022/06/25 06:44:21;;;;;;;5.33;3.40;;;;;;;22.04;48.99;95447.86;1800205;79;21060;-65
2022/06/25 06:46:47;;;;;;;4.25;3.00;;;;;;;22.17;48.02;95445.22;1800341;80;21012;-65
2022/06/25 06:49:14;;;;;;;4.37;2.77;;;;;;;22.28;45.12;95440.03;1800074;79;20984;-65
2022/06/25 06:51:41;;;;;;;3.67;2.60;;;;;;;22.38;47.51;95443.83;1803980;79;21050;-64
2022/06/25 06:54:07;;;;;;;5.00;2.42;;;;;;;22.53;47.47;95440.58;1808015;79;21537;-65
2022/06/25 06:56:34;;;;;;;2.70;2.42;;;;;;;22.66;46.97;95445.98;1807825;79;21042;-65
2022/06/25 06:59:01;;;;;;;2.52;2.33;;;;;;;22.82;46.97;95453.84;1807804;79;21003;-65
2022/06/25 07:01:27;;;;;;;3.95;2.67;;;;;;;22.92;46.51;95447.34;1807930;79;21007;-65
2022/06/25 07:03:54;;;;;;;4.03;2.80;;;;;;;23.04;46.81;95438.45;1808253;79;20987;-65
2022/06/25 07:06:20;;;;;;;3.62;2.40;;;;;;;23.19;46.62;95441.88;1808413;79;21030;-65
2022/06/25 07:08:47;;;;;;;2.58;2.37;;;;;;;23.29;46.23;95431.69;1807536;79;21030;-65
2022/06/25 07:11:30;;;;;;;2.65;2.45;;;;;;;23.45;46.28;95434.13;1808171;79;21489;-65
2022/06/25 07:14:04;;;;;;;4.40;2.67;;;;;;;23.60;45.96;95437.55;1808214;79;21007;-65
2022/06/25 07:16:32;;;;;;;3.27;2.70;;;;;;;23.72;45.45;95440.73;1808057;79;21038;-65
2022/06/25 07:19:00;;;;;;;2.80;2.40;;;;;;;23.86;44.65;95437.01;1807919;79;21027;-65
2022/06/25 07:21:28;;;;;;;3.05;2.85;;;;;;;23.96;44.98;95430.45;1808205;79;21039;-65
2022/06/25 07:23:55;;;;;;;2.70;2.50;;;;;;;24.10;44.20;95432.14;1807847;79;21000;-65
2022/06/25 07:26:22;;;;;;;4.40;2.60;;;;;;;24.14;44.24;95436.30;1808431;79;20968;-65
2022/06/25 07:28:52;;;;;;;3.05;2.75;;;;;;;24.30;44.65;95439.59;1808133;79;21015;-65
2022/06/25 07:31:19;;;;;;;2.95;2.40;;;;;;;24.43;43.57;95442.21;1808280;79;21453;-65
2022/06/25 07:33:46;;;;;;;3.75;2.90;;;;;;;24.55;43.96;95439.11;1808314;79;20960;-65
2022/06/25 07:36:12;;;;;;;4.97;3.05;;;;;;;24.68;44.39;95434.98;1808096;79;21075;-65
2022/06/25 07:38:39;;;;;;;3.02;2.72;;;;;;;24.81;44.31;95429.84;1807981;79;21079;-65
2022/06/25 07:41:05;;;;;;;3.65;2.67;;;;;;;24.93;43.84;95426.69;1808442;79;20987;-65
2022/06/25 07:43:33;;;;;;;3.00;2.80;;;;;;;25.05;43.63;95434.33;1808006;79;21011;-65
2022/06/25 07:46:00;;;;;;;4.37;3.00;;;;;;;25.19;43.55;95427.36;1808227;79;21075;-65
2022/06/25 07:48:26;;;;;;;2.52;2.30;;;;;;;25.34;42.63;95425.78;1807800;79;21031;-65
2022/06/25 07:53:38;;;;;;;4.53;2.50;;;;;;;25.59;42.01;95426.87;1805688;79;20960;-65
2022/06/25 07:56:06;;;;;;;2.65;2.45;;;;;;;25.67;41.53;95418.14;1805769;79;20960;-65
2022/06/25 07:58:34;;;;;;;3.30;2.40;;;;;;;25.81;41.62;95423.28;1805507;79;21031;-65
2022/06/25 08:01:00;;;;;;;5.45;2.35;;;;;;;25.83;40.02;95424.02;1806151;79;21004;-65
2022/06/25 08:03:27;;;;;;;2.72;2.40;;;;;;;25.91;40.42;95422.08;1805546;79;21023;-65
2022/06/25 08:05:55;;;;;;;4.62;2.52;;;;;;;26.07;39.97;95431.12;1805594;79;21442;-65
2022/06/25 08:08:22;;;;;;;3.45;2.50;;;;;;;26.19;40.07;95423.84;1805672;79;21023;-65
2022/06/25 08:10:49;;;;;;;2.60;2.40;;;;;;;26.36;40.30;95423.77;1805793;79;20995;-65
2022/06/25 08:13:16;;;;;;;7.28;2.67;;;;;;;26.42;37.69;95425.97;1805686;79;20987;-65
2022/06/25 08:15:43;;;;;;;2.77;2.33;;;;;;;26.48;37.85;95428.14;1805623;79;21038;-65
2022/06/25 08:18:09;;;;;;;3.45;2.70;;;;;;;26.61;38.68;95423.93;1805502;79;20984;-65
2022/06/25 08:20:36;;;;;;;2.85;2.60;;;;;;;26.81;37.19;95426.28;1805499;79;21022;-65
2022/06/25 08:23:03;;;;;;;3.45;2.52;;;;;;;27.01;37.97;95419.16;1805855;79;21402;-65
2022/06/25 08:25:29;;;;;;;2.92;2.50;;;;;;;27.14;36.97;95414.38;1805570;79;21461;-65
2022/06/25 08:27:56;;;;;;;4.45;2.15;;;;;;;27.29;36.73;95414.91;1805508;79;21007;-65
2022/06/25 08:30:24;;;;;;;2.72;2.50;;;;;;;27.40;33.89;95413.48;1805806;79;21453;-65
2022/06/25 08:32:50;;;;;;;3.17;2.47;;;;;;;27.52;33.39;95411.55;1805669;79;21015;-65
2022/06/25 08:35:17;;;;;;;2.42;2.17;;;;;;;27.67;34.62;95403.88;1805855;79;21035;-65
2022/06/25 08:37:49;;;;;;;2.50;2.20;;;;;;;27.82;34.12;95411.54;1805630;79;21532;-65
2022/06/25 08:40:20;;;;;;;5.17;3.12;;;;;;;27.91;32.74;95409.84;1805693;79;21010;-65
2022/06/25 08:42:48;;;;;;;2.37;2.17;;;;;;;27.91;31.61;95400.84;1805371;79;21007;-65
2022/06/25 08:45:18;;;;;;;3.40;2.40;;;;;;;28.00;31.89;95409.52;1805615;79;21466;-65
2022/06/25 08:47:48;;;;;;;2.27;2.17;;;;;;;28.14;32.62;95412.31;1805137;79;21003;-65
2022/06/25 08:50:18;;;;;;;2.55;2.22;;;;;;;28.23;31.58;95412.83;1805342;79;21003;-65
2022/06/25 08:52:51;;;;;;;3.67;2.50;;;;;;;28.16;29.90;95403.53;1805571;79;21545;-65
2022/06/25 08:55:32;;;;;;;3.10;2.50;;;;;;;28.15;31.94;95409.94;1805862;79;21065;-65
2022/06/25 08:58:01;;;;;;;3.65;2.27;;;;;;;28.21;30.62;95404.82;1805629;79;20994;-65
2022/06/25 09:00:31;;;;;;;1.98;1.87;;;;;;;28.38;31.64;95406.49;1805364;79;21011;-65
2022/06/25 09:02:59;;;;;;;3.12;2.10;;;;;;;28.62;30.34;95407.44;1805749;79;21491;-65
2022/06/25 09:05:30;;;;;;;7.95;5.40;;;;;;;28.71;30.94;95412.52;1805574;79;20964;-65
2022/06/25 09:08:00;;;;;;;5.33;3.70;;;;;;;28.65;29.15;95408.02;1804821;79;21083;-65
2022/06/25 09:10:29;;;;;;;3.35;2.60;;;;;;;28.74;30.26;95402.22;1805807;79;20992;-65
2022/06/25 09:12:59;;;;;;;2.08;1.95;;;;;;;29.00;30.83;95403.81;1805730;79;21530;-65
2022/06/25 09:15:39;;;;;;;2.70;2.30;;;;;;;29.15;29.29;95404.75;1805372;79;21019;-65
2022/06/25 09:18:12;;;;;;;5.30;2.35;;;;;;;29.14;27.94;95401.18;1805625;79;20992;-65
2022/06/25 09:21:03;;;;;;;2.27;2.08;;;;;;;29.19;28.37;95404.31;1805310;79;21038;-65
2022/06/25 09:23:36;;;;;;;4.67;2.40;;;;;;;29.41;28.08;95409.02;1805575;79;20976;-65
2022/06/25 09:26:11;;;;;;;2.52;2.22;;;;;;;29.46;27.55;95409.42;1802442;79;20971;-65
2022/06/25 09:28:41;;;;;;;3.25;2.33;;;;;;;29.13;26.77;95400.80;1805395;79;21056;-65
2022/06/25 09:31:09;;;;;;;3.15;2.20;;;;;;;28.94;27.82;95408.48;1805663;79;20971;-65
2022/06/25 09:33:39;;;;;;;2.92;1.85;;;;;;;29.16;27.63;95406.48;1805597;79;21038;-65
2022/06/25 09:36:08;;;;;;;2.42;2.12;;;;;;;29.41;29.23;95409.02;1805340;79;20972;-66
2022/06/25 09:38:35;;;;;;;3.27;2.10;;;;;;;29.63;27.73;95407.28;1805343;79;21014;-65
2022/06/25 09:41:01;;;;;;;3.92;2.22;;;;;;;29.57;28.26;95417.92;1785348;79;21059;-65
2022/06/25 09:43:36;;;;;;;2.50;2.30;;;;;;;29.72;27.56;95416.45;1805243;79;20988;-66
2022/06/25 09:46:06;;;;;;;3.85;2.17;;;;;;;30.00;27.83;95418.66;1805722;79;20948;-65
2022/06/25 09:48:36;;;;;;;2.80;2.20;;;;;;;30.18;26.51;95410.02;1805554;79;21004;-65
2022/06/25 09:51:20;;;;;;;2.35;2.12;;;;;;;30.38;26.32;95399.88;1805574;79;20983;-65
2022/06/25 09:53:59;;;;;;;2.58;2.00;;;;;;;30.45;25.21;95405.58;1805543;79;21041;-65
2022/06/25 09:56:32;;;;;;;2.87;2.20;;;;;;;30.20;26.20;95398.48;1805402;79;20995;-65
2022/06/25 09:59:01;;;;;;;3.30;2.40;;;;;;;30.23;26.41;95403.27;1805601;79;21488;-65
2022/06/25 10:01:31;;;;;;;2.33;2.12;;;;;;;30.30;25.88;95397.09;1805671;79;21430;-65
2022/06/25 10:04:03;;;;;;;2.30;2.10;;;;;;;30.44;25.85;95398.91;1805336;79;21075;-65
2022/06/25 10:06:36;;;;;;;4.67;2.33;;;;;;;30.67;26.47;95393.36;1805699;79;20972;-66
2022/06/25 10:09:06;;;;;;;3.47;2.52;;;;;;;30.83;26.66;95393.52;1785425;79;21007;-65
2022/06/25 10:11:40;;;;;;;2.98;2.20;;;;;;;31.03;26.33;95382.44;1805600;79;20999;-65
2022/06/25 10:14:07;;;;;;;2.08;1.95;;;;;;;31.13;25.88;95377.73;1805787;79;21058;-65
2022/06/25 10:16:35;;;;;;;4.17;2.05;;;;;;;31.17;26.29;95380.98;1805652;79;21075;-65
2022/06/25 10:19:03;;;;;;;4.12;2.10;;;;;;;31.32;25.08;95380.73;1804856;79;20999;-65
2022/06/25 10:21:30;;;;;;;2.65;2.17;;;;;;;31.36;24.54;95374.47;1805604;79;21025;-65
2022/06/25 10:24:02;;;;;;;2.87;2.30;;;;;;;31.49;25.17;95370.81;1805843;79;21019;-66
2022/06/25 10:26:29;;;;;;;3.27;2.50;;;;;;;31.46;24.70;95369.27;1805602;79;21019;-65
2022/06/25 10:28:56;;;;;;;2.72;2.20;;;;;;;31.71;24.89;95368.55;1805228;79;21011;-65
2022/06/25 10:31:23;;;;;;;2.30;2.10;;;;;;;31.47;23.23;95360.09;1805350;79;21406;-66
2022/06/25 10:34:04;;;;;;;2.50;2.20;;;;;;;31.68;24.73;95360.17;1805300;79;20980;-65
2022/06/25 10:36:43;;;;;;;3.50;2.20;;;;;;;31.89;23.95;95363.31;1795011;79;20983;-65
2022/06/25 10:39:31;;;;;;;2.30;2.10;;;;;;;32.11;23.45;95361.88;1805339;79;21007;-66
2022/06/25 10:45:10;;;;;;;3.08;2.10;;;;;;;32.37;23.23;95354.08;1805520;79;21470;-65
2022/06/25 10:47:41;;;;;;;3.95;1.95;;;;;;;32.57;22.66;95344.23;1805455;79;20991;-65
2022/06/25 10:50:29;;;;;;;2.35;2.15;;;;;;;32.65;20.94;95346.96;1805416;79;21075;-65
2022/06/25 10:53:13;;;;;;;3.98;2.20;;;;;;;32.55;22.62;95347.12;1802478;79;20992;-66
2022/06/25 10:55:50;;;;;;;5.28;2.27;;;;;;;32.62;22.28;95351.41;1800041;79;21493;-65
2022/06/25 10:58:23;;;;;;;2.37;2.08;;;;;;;32.61;22.78;95349.68;1799505;79;21058;-66
2022/06/25 11:01:01;;;;;;;2.83;2.40;;;;;;;32.67;22.24;95347.12;1800075;79;21016;-65
2022/06/25 11:03:36;;;;;;;4.53;2.25;;;;;;;32.64;22.81;95349.36;1800408;79;21043;-65
2022/06/25 11:06:34;;;;;;;2.60;2.27;;;;;;;32.53;22.55;95337.75;1799727;80;21015;-65
2022/06/25 11:09:08;;;;;;;2.80;2.00;;;;;;;32.33;23.37;95339.92;1800364;79;21066;-65
2022/06/25 11:11:36;;;;;;;4.65;2.27;;;;;;;32.20;23.90;95340.91;1800234;79;21019;-65
2022/06/25 11:14:13;;;;;;;2.65;2.40;;;;;;;32.11;23.14;95346.02;1799978;79;21071;-66
2022/06/25 11:16:40;;;;;;;3.37;2.30;;;;;;;31.94;24.46;95341.02;1800366;79;21008;-65
2022/06/25 11:19:07;;;;;;;2.50;2.30;;;;;;;31.90;24.05;95339.12;1800019;79;21520;-65
2022/06/25 11:21:38;;;;;;;4.83;2.37;;;;;;;31.67;23.26;95333.91;1799970;80;20984;-66
2022/06/25 11:24:16;;;;;;;9.73;2.60;;;;;;;31.53;24.25;95331.82;1800150;79;21012;-65
2022/06/25 11:29:51;;;;;;;2.83;2.33;;;;;;;31.69;23.01;95323.17;1800015;80;21039;-65
2022/06/25 11:32:25;;;;;;;3.72;2.25;;;;;;;31.68;23.21;95326.93;1800261;79;20979;-65
2022/06/25 11:34:58;;;;;;;2.72;2.33;;;;;;;31.62;24.04;95325.36;1799191;79;20992;-65
2022/06/25 11:37:26;;;;;;;2.70;2.50;;;;;;;31.50;25.11;95328.91;1800215;79;21465;-65
2022/06/25 11:39:53;;;;;;;2.60;2.40;;;;;;;31.48;25.29;95324.13;1800238;79;21474;-65
2022/06/25 11:42:20;;;;;;;4.28;2.30;;;;;;;31.22;25.67;95322.27;1799892;79;21426;-65
2022/06/25 11:44:51;;;;;;;3.87;2.40;;;;;;;31.22;25.11;95322.75;1800353;79;21047;-65
2022/06/25 11:47:24;;;;;;;3.17;2.45;;;;;;;31.35;25.62;95329.13;1798974;79;20980;-65
2022/06/25 11:49:52;;;;;;;3.65;2.55;;;;;;;31.48;24.64;95321.40;1800008;79;21106;-66
2022/06/25 11:52:22;;;;;;;4.03;2.52;;;;;;;31.89;24.22;95320.17;1800119;79;21027;-66
2022/06/25 11:54:51;;;;;;;3.22;2.60;;;;;;;32.24;23.59;95314.14;1800250;79;20988;-65
2022/06/25 11:57:27;;;;;;;3.08;2.70;;;;;;;32.20;23.61;95317.70;1800135;79;21039;-66
2022/06/25 11:59:56;;;;;;;3.42;2.58;;;;;;;32.16;22.81;95314.98;1800261;79;21012;-65